Time;durP1;ratioP1;P1;durP2;ratioP2;P2;SDS_P1;SDS_P2;PMS_P1;PMS_P2;Temp;Humidity;BMP_temperature;BMP_pressure;BME280_temperature;BME280_humidity;BME280_pressure;Samples;Min_cycle;Max_cycle;Signal;HPM_P1;HPM_P2
2020/12/20 15:27:11;;;;;;;23.38;8.00;;;;;;;21.02;50.50;101375.47;2416607;72;24747;-77
2020/12/20 15:30:14;;;;;;;34.88;10.18;;;;;;;21.05;50.75;101375.11;2333554;76;50430;-75
2020/12/20 15:33:21;;;;;;;25.68;7.67;;;;;;;21.06;48.87;101368.69;2333489;76;51416;-75
2020/12/20 15:36:24;;;;;;;22.02;8.43;;;;;;;21.18;48.96;101377.69;2354607;74;50576;-76
2020/12/20 15:39:26;;;;;;;19.90;8.63;;;;;;;21.27;48.70;101380.61;2369010;74;50184;-77
2020/12/20 15:42:28;;;;;;;17.67;8.28;;;;;;;21.31;48.61;101380.59;2333661;76;50462;-78
2020/12/20 15:45:30;;;;;;;22.50;8.43;;;;;;;21.40;48.51;101385.40;2365059;75;51392;-77
2020/12/20 15:48:32;;;;;;;20.75;8.70;;;;;;;21.52;48.37;101378.03;2353830;75;51400;-76
2020/12/20 15:51:35;;;;;;;27.15;9.30;;;;;;;21.60;48.17;101384.36;2347542;75;50577;-77
2020/12/20 15:54:37;;;;;;;17.98;8.90;;;;;;;21.67;47.99;101389.33;2333701;76;51289;-76
2020/12/20 15:57:40;;;;;;;21.62;8.50;;;;;;;21.62;48.22;101390.40;2333510;75;50365;-76
2020/12/20 16:00:42;;;;;;;19.10;8.28;;;;;;;21.65;48.73;101391.37;2334085;75;51429;-79
2020/12/20 16:03:44;;;;;;;30.08;8.83;;;;;;;21.60;49.20;101387.88;2341924;75;50526;-78
2020/12/20 16:06:47;;;;;;;23.52;8.80;;;;;;;21.62;49.31;101382.32;2356031;75;50643;-74
2020/12/20 16:09:49;;;;;;;21.02;8.15;;;;;;;21.69;49.17;101384.61;2355300;75;51407;-76
2020/12/20 16:12:51;;;;;;;27.42;9.20;;;;;;;21.76;49.39;101382.84;2374055;75;50203;-78
2020/12/20 16:15:53;;;;;;;26.02;8.40;;;;;;;21.84;49.43;101389.48;2374107;75;50335;-75
2020/12/20 16:18:55;;;;;;;29.55;9.18;;;;;;;21.79;49.58;101381.12;2366656;75;50609;-75
2020/12/20 16:21:59;;;;;;;30.60;8.63;;;;;;;21.84;49.51;101380.05;2333549;75;51405;-77
2020/12/20 16:25:01;;;;;;;29.10;9.85;;;;;;;21.92;49.51;101384.50;2333546;75;51492;-77
2020/12/20 16:28:03;;;;;;;36.08;10.10;;;;;;;21.76;50.08;101380.15;2345029;74;50232;-76
2020/12/20 16:31:06;;;;;;;29.45;8.78;;;;;;;21.74;50.54;101380.84;2353197;75;50242;-78
2020/12/20 16:34:08;;;;;;;29.30;10.35;;;;;;;21.72;50.66;101374.80;2314275;75;50630;-76
2020/12/20 16:37:15;;;;;;;26.73;8.70;;;;;;;21.78;50.50;101378.59;2339745;74;50650;-76
2020/12/20 16:40:14;;;;;;;29.05;8.40;;;;;;;21.80;50.53;101375.22;2351776;74;22890;-77
2020/12/20 16:43:17;;;;;;;30.97;10.23;;;;;;;21.81;50.09;101383.61;2325004;75;51470;-74
2020/12/20 16:46:19;;;;;;;32.13;8.73;;;;;;;21.69;50.40;101380.56;2336256;74;51418;-74
2020/12/20 16:49:21;;;;;;;22.30;9.05;;;;;;;21.65;50.65;101384.64;2351924;74;50360;-77
2020/12/20 16:52:23;;;;;;;35.50;9.28;;;;;;;21.74;50.63;101372.76;2327900;75;50286;-75
2020/12/20 16:55:25;;;;;;;39.48;9.88;;;;;;;21.69;50.80;101376.00;2345528;75;50668;-75
2020/12/20 16:58:28;;;;;;;30.37;9.50;;;;;;;21.66;50.79;101374.20;2344794;75;50733;-76
2020/12/20 17:01:32;;;;;;;48.80;10.70;;;;;;;21.65;50.87;101376.04;2351795;75;51414;-76
2020/12/20 17:04:34;;;;;;;41.40;10.08;;;;;;;21.65;50.74;101375.21;2351641;75;51434;-76
2020/12/20 17:07:36;;;;;;;35.83;10.43;;;;;;;21.66;50.57;101371.52;2351684;74;50254;-76
2020/12/20 17:10:38;;;;;;;31.73;9.90;;;;;;;21.72;50.20;101381.02;2351600;75;50627;-76
2020/12/20 17:13:44;;;;;;;28.92;9.28;;;;;;;21.75;49.99;101394.62;2351748;75;50304;-76
2020/12/20 17:16:46;;;;;;;36.15;9.60;;;;;;;21.73;49.90;101394.83;2351898;74;51387;-76
2020/12/20 17:19:48;;;;;;;29.77;9.33;;;;;;;21.71;49.83;101384.74;2351496;75;50694;-76
2020/12/20 17:22:50;;;;;;;32.53;9.38;;;;;;;21.74;49.74;101387.58;2313346;75;51438;-76
2020/12/20 17:25:53;;;;;;;35.63;10.55;;;;;;;21.71;49.69;101386.61;2312511;75;51479;-75
2020/12/20 17:28:55;;;;;;;25.30;9.15;;;;;;;21.70;49.66;101386.27;2330276;75;52044;-76
2020/12/20 17:31:57;;;;;;;30.08;8.83;;;;;;;21.72;49.57;101388.27;2357962;74;52410;-76
2020/12/20 17:35:00;;;;;;;23.85;8.83;;;;;;;21.78;49.39;101377.25;2315700;76;51479;-76
2020/12/20 17:38:02;;;;;;;27.85;9.25;;;;;;;21.75;49.39;101387.89;2315961;76;50235;-76
2020/12/20 17:41:04;;;;;;;21.75;8.25;;;;;;;21.84;49.17;101381.91;2315594;76;50086;-77
2020/12/20 17:44:06;;;;;;;24.77;9.15;;;;;;;21.86;49.08;101379.84;2315729;76;50649;-75
2020/12/20 17:47:08;;;;;;;24.87;8.45;;;;;;;21.86;49.02;101373.97;2315754;76;50642;-75
2020/12/20 17:50:11;;;;;;;24.52;8.78;;;;;;;21.90;48.89;101377.94;2346890;75;51486;-76
2020/12/20 17:53:13;;;;;;;22.87;8.68;;;;;;;21.83;49.00;101364.89;2359320;74;50631;-76
2020/12/20 17:56:19;;;;;;;26.62;8.75;;;;;;;21.79;48.97;101362.27;2331109;75;50525;-76
2020/12/20 17:59:21;;;;;;;18.82;9.15;;;;;;;21.71;48.98;101370.45;2339303;75;50585;-76
2020/12/20 18:02:23;;;;;;;20.80;9.18;;;;;;;21.67;48.95;101379.91;2362066;75;50644;-76
2020/12/20 18:05:25;;;;;;;23.50;9.55;;;;;;;21.65;48.87;101378.73;2360877;75;51588;-76
2020/12/20 18:08:30;;;;;;;20.12;9.98;;;;;;;21.73;48.57;101377.80;2360742;75;51673;-76
2020/12/20 18:11:32;;;;;;;21.68;9.83;;;;;;;21.71;48.54;101383.91;2358197;74;22293;-76
2020/12/20 18:14:34;;;;;;;19.87;9.50;;;;;;;21.71;48.44;101387.44;2357756;75;51563;-77
2020/12/20 18:17:36;;;;;;;17.48;8.73;;;;;;;21.71;48.33;101396.03;2357964;74;51407;-77
2020/12/20 18:20:39;;;;;;;24.60;10.18;;;;;;;21.66;48.63;101401.14;2357695;75;51396;-76
2020/12/20 18:23:41;;;;;;;23.00;9.48;;;;;;;21.62;49.01;101409.25;2358114;75;50247;-75
2020/12/20 18:26:44;;;;;;;16.95;8.88;;;;;;;21.72;49.06;101408.47;2348282;74;50288;-75
2020/12/20 18:29:46;;;;;;;15.88;8.95;;;;;;;21.73;49.13;101394.83;2317988;75;51477;-75
2020/12/20 18:32:48;;;;;;;23.55;9.35;;;;;;;21.70;49.37;101397.04;2317850;76;52168;-76
2020/12/20 18:35:50;;;;;;;16.62;9.18;;;;;;;21.72;49.61;101389.61;2342786;75;51533;-78
2020/12/20 18:38:52;;;;;;;24.60;9.08;;;;;;;21.73;49.78;101399.35;2325733;75;51430;-76
2020/12/20 18:41:55;;;;;;;24.20;9.45;;;;;;;21.70;49.88;101403.77;2317543;76;50330;-75
2020/12/20 18:44:57;;;;;;;23.57;9.60;;;;;;;21.60;50.18;101407.25;2345144;74;50307;-77
2020/12/20 18:48:00;;;;;;;22.48;8.35;;;;;;;21.52;50.49;101406.82;2325361;75;50626;-78
2020/12/20 18:51:08;;;;;;;19.55;8.50;;;;;;;21.56;50.32;101396.02;2334442;75;52001;-78
2020/12/20 18:54:11;;;;;;;21.77;7.75;;;;;;;21.57;50.37;101404.93;2327149;75;52717;-78
2020/12/20 18:57:13;;;;;;;22.15;8.75;;;;;;;21.60;50.28;101395.95;2345641;75;50389;-75
2020/12/20 19:00:16;;;;;;;18.50;8.10;;;;;;;21.62;50.31;101413.30;2342324;74;50352;-77
2020/12/20 19:03:18;;;;;;;18.23;7.97;;;;;;;21.63;50.30;101402.83;2356150;75;50609;-77
2020/12/20 19:06:20;;;;;;;14.50;8.50;;;;;;;21.62;50.30;101390.40;2327061;75;51443;-77
2020/12/20 19:09:22;;;;;;;26.02;8.13;;;;;;;21.65;50.29;101391.37;2338524;75;51483;-77
2020/12/20 19:12:24;;;;;;;17.60;8.45;;;;;;;21.62;50.34;101395.78;2343116;75;49808;-78
2020/12/20 19:15:26;;;;;;;21.15;7.97;;;;;;;21.57;50.51;101390.12;2327903;74;50237;-76
2020/12/20 19:18:29;;;;;;;21.37;8.45;;;;;;;21.45;50.69;101400.49;2335247;75;50712;-76
2020/12/20 19:21:31;;;;;;;18.85;8.10;;;;;;;21.40;50.81;101398.38;2331721;75;50673;-76
2020/12/20 19:24:38;;;;;;;16.80;8.08;;;;;;;21.36;50.99;101395.68;2354341;75;52221;-74
2020/12/20 19:27:37;;;;;;;14.07;7.47;;;;;;;21.35;51.07;101394.02;2367422;74;22902;-77
2020/12/20 19:30:39;;;;;;;14.45;7.50;;;;;;;21.39;50.81;101389.95;2373413;74;50349;-75
2020/12/20 19:33:42;;;;;;;13.40;6.62;;;;;;;21.42;50.85;101403.56;2343243;74;52288;-78
2020/12/20 19:36:45;;;;;;;18.52;7.78;;;;;;;21.42;51.05;101402.21;2361340;74;51446;-77
2020/12/20 19:39:48;;;;;;;24.75;7.33;;;;;;;21.49;51.35;101408.03;2362282;74;50559;-77
2020/12/20 19:42:50;;;;;;;19.60;6.83;;;;;;;21.53;51.31;101405.82;2342868;74;50039;-77
2020/12/20 19:45:52;;;;;;;20.77;6.92;;;;;;;21.59;51.33;101406.94;2367315;74;50758;-75
2020/12/20 19:49:00;;;;;;;12.95;6.50;;;;;;;21.48;51.56;101414.45;2341274;76;51217;-77
2020/12/20 19:51:58;;;;;;;14.33;6.72;;;;;;;21.47;51.52;101414.09;2340615;74;23023;-76
2020/12/20 19:55:00;;;;;;;15.48;6.97;;;;;;;21.46;51.33;101417.83;2348561;74;50256;-76
2020/12/20 19:58:04;;;;;;;17.17;7.75;;;;;;;21.48;51.77;101422.52;2379202;74;50307;-76
2020/12/20 20:01:06;;;;;;;16.50;7.42;;;;;;;21.46;51.88;101429.94;2383283;74;50292;-76
2020/12/20 20:04:08;;;;;;;13.00;6.65;;;;;;;21.50;51.59;101428.56;2353142;74;50641;-76
2020/12/20 20:07:12;;;;;;;16.97;7.37;;;;;;;21.56;51.60;101435.59;2344790;74;50645;-76
2020/12/20 20:10:14;;;;;;;14.85;7.35;;;;;;;21.57;51.58;101439.42;2342128;76;50731;-76
2020/12/20 20:13:16;;;;;;;16.45;7.85;;;;;;;21.61;51.30;101437.22;2361708;74;50444;-77
2020/12/20 20:16:19;;;;;;;12.03;7.20;;;;;;;21.65;51.28;101436.64;2382212;74;50385;-76
2020/12/20 20:19:21;;;;;;;18.27;7.83;;;;;;;21.66;51.32;101440.20;2347640;74;50662;-77
2020/12/20 20:26:21;;;;;;;22.17;8.13;;;;;;;21.69;51.30;101440.65;2372383;74;22419;-76
2020/12/20 20:29:23;;;;;;;18.75;8.23;;;;;;;21.67;51.72;101445.38;2381822;74;51497;-76
2020/12/20 20:32:26;;;;;;;19.42;7.67;;;;;;;21.59;52.02;101445.98;2377081;74;51541;-76
2020/12/20 20:35:28;;;;;;;23.47;8.53;;;;;;;21.58;52.26;101437.56;2341100;76;51455;-76
2020/12/20 20:38:30;;;;;;;18.98;8.25;;;;;;;21.59;52.30;101440.08;2341327;76;50289;-75
2020/12/20 20:41:32;;;;;;;19.55;8.45;;;;;;;21.60;52.22;101440.39;2361293;74;50207;-75
2020/12/20 20:44:34;;;;;;;15.68;7.65;;;;;;;21.59;52.21;101445.98;2382804;74;50330;-75
2020/12/20 20:47:37;;;;;;;14.53;8.15;;;;;;;21.64;52.11;101453.00;2348262;74;50626;-76
2020/12/20 20:50:39;;;;;;;17.30;8.40;;;;;;;21.61;52.14;101457.42;2349301;74;52211;-76
2020/12/20 20:53:45;;;;;;;17.50;8.90;;;;;;;21.65;52.12;101450.63;2355964;74;50082;-79
2020/12/20 20:56:47;;;;;;;17.67;8.90;;;;;;;21.63;52.10;101439.19;2382738;74;50696;-77
2020/12/20 20:59:50;;;;;;;18.70;7.62;;;;;;;21.64;52.30;101438.19;2382850;74;52205;-75
2020/12/20 21:02:52;;;;;;;16.50;8.48;;;;;;;21.68;52.55;101443.03;2369870;74;51403;-79
2020/12/20 21:05:54;;;;;;;21.70;7.80;;;;;;;21.72;52.52;101447.01;2342500;76;51520;-77
2020/12/20 21:08:58;;;;;;;16.95;8.00;;;;;;;21.76;52.42;101447.50;2341709;76;50347;-76
2020/12/20 21:12:00;;;;;;;21.52;8.40;;;;;;;21.81;52.34;101457.69;2341113;74;50541;-78
2020/12/20 21:15:02;;;;;;;15.20;7.83;;;;;;;21.75;52.47;101455.23;2342017;76;50682;-77
2020/12/20 21:18:05;;;;;;;17.27;7.67;;;;;;;21.68;52.73;101451.11;2356374;74;50440;-75
2020/12/20 21:21:07;;;;;;;16.82;7.72;;;;;;;21.64;52.90;101451.66;2389383;74;50725;-76
2020/12/20 21:24:09;;;;;;;20.02;7.87;;;;;;;21.57;53.14;101448.02;2362125;74;50045;-76
2020/12/20 21:27:14;;;;;;;14.53;7.60;;;;;;;21.50;53.23;101447.41;2365706;74;50717;-77
2020/12/20 21:30:16;;;;;;;12.82;7.53;;;;;;;21.45;53.56;101451.65;2324497;75;22370;-75
2020/12/20 21:33:18;;;;;;;17.65;7.85;;;;;;;21.35;53.82;101455.94;2358311;75;50696;-77
2020/12/20 21:36:20;;;;;;;17.52;8.40;;;;;;;21.28;54.08;101458.50;2340472;75;51548;-77
2020/12/20 21:39:22;;;;;;;18.82;8.08;;;;;;;21.19;54.56;101464.96;2317905;76;50330;-75
2020/12/20 21:42:26;;;;;;;19.65;8.68;;;;;;;21.15;54.67;101461.48;2349869;75;51446;-78
2020/12/20 21:45:28;;;;;;;20.45;8.08;;;;;;;21.08;54.71;101470.27;2357806;74;52231;-76
2020/12/20 21:48:31;;;;;;;18.17;8.05;;;;;;;21.03;54.84;101472.66;2349174;75;50687;-76
2020/12/20 21:51:34;;;;;;;17.60;8.03;;;;;;;21.00;55.45;101474.88;2327895;75;50343;-76
2020/12/20 21:54:37;;;;;;;15.83;8.48;;;;;;;20.89;55.25;101480.17;2317221;76;50120;-79
2020/12/20 21:57:39;;;;;;;16.27;7.72;;;;;;;20.82;55.06;101471.13;2317539;76;51451;-77
2020/12/20 22:00:43;;;;;;;16.62;7.67;;;;;;;20.76;55.26;101473.20;2324888;75;50313;-77
2020/12/20 22:03:45;;;;;;;17.82;7.92;;;;;;;20.73;55.38;101474.39;2334009;75;50765;-78
2020/12/20 22:06:47;;;;;;;16.97;7.92;;;;;;;20.69;55.72;101474.91;2347782;75;51414;-77
2020/12/20 22:09:49;;;;;;;19.40;8.63;;;;;;;20.65;55.72;101471.23;2356575;75;50313;-77
2020/12/20 22:12:52;;;;;;;23.15;8.65;;;;;;;20.62;55.55;101474.25;2358153;74;50306;-77
2020/12/20 22:15:54;;;;;;;20.17;9.00;;;;;;;20.57;55.49;101479.33;2357572;75;50402;-77
2020/12/20 22:18:56;;;;;;;20.62;9.03;;;;;;;20.50;55.59;101478.83;2325399;75;51420;-76
2020/12/20 22:21:58;;;;;;;23.02;8.70;;;;;;;20.39;55.65;101476.02;2321100;75;50556;-77
2020/12/20 22:25:01;;;;;;;24.00;8.70;;;;;;;20.33;55.50;101488.83;2358413;75;52523;-77
2020/12/20 22:28:04;;;;;;;29.95;9.03;;;;;;;20.23;55.60;101480.97;2320399;76;51537;-77
2020/12/20 22:31:06;;;;;;;27.85;9.25;;;;;;;20.19;55.50;101483.17;2333235;75;50740;-77
2020/12/20 22:34:08;;;;;;;20.12;8.38;;;;;;;20.13;55.52;101482.50;2359056;75;50161;-77
2020/12/20 22:37:10;;;;;;;28.02;9.48;;;;;;;20.10;55.46;101482.02;2359413;75;51537;-77
2020/12/20 22:40:12;;;;;;;26.93;8.88;;;;;;;20.06;55.40;101488.23;2358217;75;50749;-77
2020/12/20 22:43:15;;;;;;;25.25;9.13;;;;;;;20.01;55.70;101487.91;2318731;76;51490;-77
2020/12/20 22:46:17;;;;;;;23.18;9.40;;;;;;;19.97;55.62;101491.45;2339146;75;51621;-77
2020/12/20 22:49:19;;;;;;;23.50;8.75;;;;;;;19.96;55.64;101499.19;2357951;75;51457;-77
2020/12/20 22:52:21;;;;;;;18.70;8.43;;;;;;;19.93;55.51;101508.08;2350018;75;50440;-77
2020/12/20 22:55:23;;;;;;;20.40;9.18;;;;;;;19.92;55.30;101510.44;2317786;76;50293;-77
2020/12/20 22:58:28;;;;;;;30.12;9.30;;;;;;;19.87;55.39;101500.20;2317503;76;50658;-77
2020/12/20 23:01:29;;;;;;;24.85;9.48;;;;;;;19.87;55.29;101503.41;2337644;75;22251;-77
2020/12/20 23:04:32;;;;;;;22.90;9.60;;;;;;;19.84;55.33;101501.89;2357801;75;50360;-77
2020/12/20 23:07:34;;;;;;;26.42;9.58;;;;;;;19.82;55.22;101505.25;2325421;75;50784;-77
2020/12/20 23:10:36;;;;;;;25.37;8.65;;;;;;;19.78;55.14;101504.77;2328545;75;51551;-76
2020/12/20 23:13:39;;;;;;;28.38;9.30;;;;;;;19.75;55.20;101509.11;2349717;74;52332;-77
2020/12/20 23:16:41;;;;;;;21.50;9.05;;;;;;;19.73;55.32;101505.77;2318403;76;50372;-77
2020/12/20 23:19:43;;;;;;;24.95;9.05;;;;;;;19.72;55.17;101498.70;2318951;75;50659;-77
2020/12/20 23:22:45;;;;;;;21.75;9.73;;;;;;;19.69;55.15;101501.73;2318391;75;51576;-77
2020/12/20 23:25:48;;;;;;;23.87;8.83;;;;;;;19.68;55.40;101500.08;2318794;75;51589;-77
2020/12/20 23:28:50;;;;;;;21.50;8.83;;;;;;;19.66;55.22;101496.69;2326298;74;51443;-77
2020/12/20 23:31:52;;;;;;;16.40;8.15;;;;;;;19.66;55.57;101495.85;2382270;74;50360;-77
2020/12/20 23:34:54;;;;;;;23.15;8.33;;;;;;;19.64;55.35;101495.17;2381832;74;50319;-77
2020/12/20 23:37:57;;;;;;;21.50;8.78;;;;;;;19.63;55.20;101494.34;2381949;74;50754;-77
2020/12/20 23:40:59;;;;;;;19.92;8.83;;;;;;;19.61;55.01;101482.93;2347467;74;51508;-78
2020/12/20 23:44:03;;;;;;;22.85;8.90;;;;;;;19.58;55.07;101484.62;2378771;74;50448;-77
2020/12/20 23:47:07;;;;;;;26.45;8.68;;;;;;;19.56;55.13;101482.59;2372338;74;51454;-77
2020/12/20 23:50:09;;;;;;;25.50;8.80;;;;;;;19.56;55.36;101482.59;2341201;75;25320;-77
2020/12/20 23:53:11;;;;;;;17.40;8.00;;;;;;;19.55;55.12;101478.25;2360781;74;51463;-77
2020/12/20 23:56:21;;;;;;;18.77;8.53;;;;;;;19.53;55.05;101479.75;2382189;74;50431;-77
2020/12/20 23:59:24;;;;;;;22.85;9.18;;;;;;;19.50;55.19;101472.04;2343036;74;51495;-77
